Scranton, North Carolina
Current Conditions -  °F | °C
As of 11:56 AM on Friday 24 Oct 2014 (Local Time) from K2DP Reporting Station
Clear Clear  
Wind Chill: 63°   Ceiling: Unl
Heat Index: 63°   Visibility: 10mi
Dew Point: 47°   Wind: 12mph
Humidity: 55%   Direction: 330°NNW
Pressure: 30"   Gusts: 17mph
Location:  35.5°N, 76.45°W
Report Text: K2DP 241556Z AUTO 33010G15KT 10SM CLR 17/08 A3000 RMK AO2 SLPNO T01720082
Loading
Personal Weather Stations






























Interactive Weather Map
Tropical Storm Tracking
New forecast layout! Learn more

10-Day Weather Forecast

Advertisements
Track Severe Weather on mobile